createdAt,value
2023-05-18T00:00:19.336Z,2.53
2023-05-18T00:02:50.208Z,2.38
2023-05-18T00:05:20.606Z,2.67
2023-05-18T00:07:47.899Z,2.67
2023-05-18T00:10:15.128Z,3.08
2023-05-18T00:12:42.353Z,2.25
2023-05-18T00:15:10.495Z,2.35
2023-05-18T00:17:37.815Z,2.50
2023-05-18T00:20:05.669Z,2.30
2023-05-18T00:22:32.867Z,2.28
2023-05-18T00:25:00.193Z,2.75
2023-05-18T00:27:31.553Z,2.65
2023-05-18T00:29:58.812Z,2.40
2023-05-18T00:32:26.434Z,1.63
2023-05-18T00:34:53.683Z,2.92
2023-05-18T00:37:20.854Z,2.42
2023-05-18T00:39:49.232Z,2.05
2023-05-18T00:42:16.613Z,2.47
2023-05-18T00:44:43.802Z,3.35
2023-05-18T00:47:11.640Z,2.58
2023-05-18T00:49:38.854Z,2.22
2023-05-18T00:52:06.276Z,2.03
2023-05-18T00:54:34.499Z,2.50
2023-05-18T00:57:06.891Z,2.90
2023-05-18T00:59:34.767Z,2.10
2023-05-18T01:02:02.081Z,2.13
2023-05-18T01:04:31.805Z,2.45
2023-05-18T01:07:06.696Z,3.08
2023-05-18T01:09:34.715Z,2.45
2023-05-18T01:12:29.809Z,2.33
2023-05-18T01:15:08.074Z,2.70
2023-05-18T01:17:44.567Z,2.05
2023-05-18T01:20:15.789Z,2.42
2023-05-18T01:22:42.936Z,2.25
2023-05-18T01:25:17.532Z,2.47
2023-05-18T01:27:46.530Z,2.55
2023-05-18T01:30:18.174Z,2.72
2023-05-18T01:32:48.554Z,2.47
2023-05-18T01:35:15.916Z,1.75
2023-05-18T01:37:43.042Z,2.35
2023-05-18T01:40:10.415Z,2.63
2023-05-18T01:42:41.462Z,2.30
2023-05-18T01:45:16.480Z,2.33
2023-05-18T01:47:45.664Z,2.00
2023-05-18T01:50:23.087Z,2.30
2023-05-18T01:52:59.387Z,2.33
2023-05-18T01:55:30.163Z,2.85
2023-05-18T01:57:58.605Z,2.45
2023-05-18T02:00:26.418Z,2.67
2023-05-18T02:02:53.712Z,2.40
2023-05-18T02:05:20.984Z,1.95
2023-05-18T02:07:48.314Z,2.53
2023-05-18T02:10:15.971Z,2.50
2023-05-18T02:12:43.180Z,2.53
2023-05-18T02:15:10.568Z,2.80
2023-05-18T02:17:38.274Z,2.40
2023-05-18T02:20:08.890Z,2.17
2023-05-18T02:22:38.426Z,3.03
2023-05-18T02:25:07.166Z,2.28
2023-05-18T02:27:35.987Z,3.30
2023-05-18T02:30:08.797Z,2.92
2023-05-18T02:32:39.001Z,2.83
2023-05-18T02:35:07.451Z,2.00
2023-05-18T02:37:39.635Z,2.20
2023-05-18T02:40:10.388Z,1.77
2023-05-18T02:42:37.588Z,2.58
2023-05-18T02:45:05.299Z,1.50
2023-05-18T02:47:32.636Z,2.33
2023-05-18T02:49:59.834Z,2.15
2023-05-18T02:52:27.788Z,2.58
2023-05-18T02:59:19.173Z,2.38
2023-05-18T03:01:50.558Z,2.67
2023-05-18T03:04:17.998Z,2.40
2023-05-18T03:06:46.646Z,2.90
2023-05-18T03:09:18.010Z,2.35
2023-05-18T03:11:45.197Z,2.33
2023-05-18T03:15:02.708Z,2.28
2023-05-18T03:19:57.460Z,2.22
2023-05-18T03:22:24.669Z,2.88
2023-05-18T03:24:51.937Z,2.35
2023-05-18T03:27:23.085Z,2.40
2023-05-18T03:29:50.622Z,1.85
2023-05-18T03:32:18.746Z,2.35
2023-05-18T03:34:47.694Z,2.13
2023-05-18T03:37:15.942Z,2.33
2023-05-18T03:39:43.576Z,2.13
2023-05-18T03:42:10.928Z,2.67
2023-05-18T03:44:38.223Z,2.40
2023-05-18T03:47:05.659Z,3.17
2023-05-18T03:49:34.626Z,2.85
2023-05-18T03:52:03.961Z,2.80
2023-05-18T03:54:32.663Z,2.65
2023-05-18T03:57:00.097Z,2.50
2023-05-18T03:59:27.329Z,2.90
2023-05-18T04:01:54.690Z,2.65
2023-05-18T04:08:35.188Z,2.22
2023-05-18T04:11:02.776Z,2.38
2023-05-18T04:13:30.066Z,2.22
2023-05-18T04:15:58.427Z,2.35
2023-05-18T04:18:30.289Z,2.38
2023-05-18T04:20:57.734Z,2.20
2023-05-18T04:23:25.150Z,2.70
2023-05-18T04:25:52.329Z,2.97
2023-05-18T04:28:22.568Z,3.00
2023-05-18T04:30:49.706Z,2.65
2023-05-18T04:33:17.198Z,2.10
2023-05-18T04:35:44.571Z,2.03
2023-05-18T04:38:11.957Z,2.60
2023-05-18T04:40:42.449Z,2.88
2023-05-18T04:43:10.594Z,2.70
2023-05-18T04:45:37.890Z,2.92
2023-05-18T04:48:05.579Z,2.05
2023-05-18T04:50:32.803Z,3.10
2023-05-18T04:53:02.239Z,2.33
2023-05-18T04:55:31.060Z,2.67
2023-05-18T04:58:00.371Z,3.08
2023-05-18T05:00:31.345Z,2.90
2023-05-18T05:02:59.248Z,2.88
2023-05-18T05:05:27.234Z,3.28
2023-05-18T05:07:55.755Z,2.80
2023-05-18T05:10:23.289Z,3.63
2023-05-18T05:12:51.113Z,2.75
2023-05-18T05:15:19.206Z,2.38
2023-05-18T05:17:47.441Z,2.58
2023-05-18T05:20:14.709Z,2.63
2023-05-18T05:22:41.970Z,2.58
2023-05-18T05:25:09.502Z,3.30
2023-05-18T05:27:36.818Z,2.80
2023-05-18T05:30:04.965Z,2.80
2023-05-18T05:32:32.141Z,3.25
2023-05-18T05:34:59.366Z,2.13
2023-05-18T05:37:26.583Z,3.10
2023-05-18T05:39:53.801Z,3.35
2023-05-18T05:42:21.030Z,2.55
2023-05-18T05:44:48.254Z,3.15
2023-05-18T05:47:15.563Z,3.20
2023-05-18T05:49:42.791Z,2.20
2023-05-18T05:52:10.090Z,2.72
2023-05-18T05:54:37.297Z,3.15
2023-05-18T05:57:04.736Z,2.40
2023-05-18T05:59:31.977Z,2.72
2023-05-18T06:01:59.274Z,2.90
2023-05-18T06:04:26.752Z,2.50
2023-05-18T06:06:54.191Z,2.78
2023-05-18T06:09:21.355Z,2.50
2023-05-18T06:11:48.594Z,2.85
2023-05-18T06:14:15.938Z,3.65
2023-05-18T06:16:43.316Z,2.20
2023-05-18T06:19:10.599Z,2.78
2023-05-18T06:21:37.925Z,2.97
2023-05-18T06:24:05.835Z,2.05
2023-05-18T06:26:33.097Z,2.35
2023-05-18T06:29:00.271Z,3.15
2023-05-18T06:31:30.143Z,2.45
2023-05-18T06:33:57.810Z,2.80
2023-05-18T06:36:25.088Z,2.42
2023-05-18T06:38:52.354Z,2.20
2023-05-18T06:41:19.579Z,2.65
2023-05-18T06:43:46.793Z,2.80
2023-05-18T06:46:21.654Z,2.58
2023-05-18T06:48:48.963Z,2.45
2023-05-18T06:51:16.282Z,2.67
2023-05-18T06:53:43.543Z,2.53
2023-05-18T06:56:14.021Z,2.25
2023-05-18T06:58:42.158Z,2.53
2023-05-18T07:01:09.935Z,2.50
2023-05-18T07:03:37.539Z,2.30
2023-05-18T07:06:05.078Z,2.08
2023-05-18T07:08:32.566Z,2.72
2023-05-18T07:11:02.370Z,2.35
2023-05-18T07:13:30.075Z,2.05
2023-05-18T07:15:57.442Z,3.45
2023-05-18T07:18:25.023Z,1.77
2023-05-18T07:20:52.309Z,2.03
2023-05-18T07:23:19.466Z,2.25
2023-05-18T07:25:46.846Z,2.13
2023-05-18T07:28:14.000Z,2.83
2023-05-18T07:30:41.237Z,2.53
2023-05-18T07:33:08.595Z,2.33
2023-05-18T07:35:36.512Z,2.58
2023-05-18T07:38:03.683Z,2.47
2023-05-18T07:40:30.889Z,2.03
2023-05-18T07:42:58.129Z,2.00
2023-05-18T07:45:25.619Z,2.83
2023-05-18T07:47:53.046Z,2.35
2023-05-18T07:50:20.945Z,2.00
2023-05-18T07:52:48.090Z,2.00
2023-05-18T07:55:15.369Z,1.40
2023-05-18T07:57:42.717Z,2.78
2023-05-18T08:00:10.390Z,1.77
2023-05-18T08:02:37.928Z,2.33
2023-05-18T08:05:05.746Z,2.13
2023-05-18T08:07:33.466Z,2.58
2023-05-18T08:10:00.966Z,1.50
2023-05-18T08:12:29.900Z,1.63
2023-05-18T08:14:57.278Z,1.75
2023-05-18T08:17:24.548Z,1.60
2023-05-18T08:19:53.787Z,1.92
2023-05-18T08:22:21.356Z,1.60
2023-05-18T08:24:48.676Z,1.80
2023-05-18T08:27:16.017Z,1.95
2023-05-18T08:29:43.232Z,2.25
2023-05-18T08:32:10.636Z,1.83
2023-05-18T08:34:37.898Z,2.10
2023-05-18T08:37:05.165Z,1.67
2023-05-18T08:39:32.491Z,1.90
2023-05-18T08:42:45.671Z,1.60
2023-05-18T08:47:56.355Z,2.10
2023-05-18T08:50:24.701Z,2.30
2023-05-18T08:52:55.087Z,2.00
2023-05-18T08:55:23.696Z,2.22
2023-05-18T08:57:56.272Z,2.25
2023-05-18T09:00:24.652Z,1.98
2023-05-18T09:02:52.395Z,1.60
2023-05-18T09:05:21.037Z,2.47
2023-05-18T09:07:50.882Z,1.80
2023-05-18T09:10:18.876Z,1.90
2023-05-18T09:12:47.238Z,1.65
2023-05-18T09:15:17.620Z,1.77
2023-05-18T09:17:44.905Z,2.08
2023-05-18T09:20:12.247Z,2.08
2023-05-18T09:22:40.578Z,2.00
2023-05-18T09:25:11.218Z,1.58
2023-05-18T09:27:38.620Z,1.73
2023-05-18T09:30:11.143Z,1.95
2023-05-18T09:32:38.467Z,1.60
2023-05-18T09:35:06.870Z,1.60
2023-05-18T09:37:34.310Z,1.73
2023-05-18T09:40:05.000Z,2.47
2023-05-18T09:42:39.166Z,1.98
2023-05-18T09:45:20.653Z,1.77
2023-05-18T09:47:49.990Z,1.70
2023-05-18T09:50:21.065Z,2.40
2023-05-18T09:57:14.167Z,2.05
2023-05-18T09:59:41.373Z,2.10
2023-05-18T10:02:12.985Z,1.50
2023-05-18T10:04:43.308Z,1.40
2023-05-18T10:07:15.235Z,1.40
2023-05-18T10:09:44.669Z,1.05
2023-05-18T10:12:17.049Z,1.92
2023-05-18T10:14:46.014Z,2.10
2023-05-18T10:17:16.778Z,1.35
2023-05-18T10:19:45.697Z,1.65
2023-05-18T10:22:16.009Z,1.50
2023-05-18T10:24:45.928Z,1.90
2023-05-18T10:27:14.785Z,2.05
2023-05-18T10:29:42.419Z,2.20
2023-05-18T10:32:12.487Z,1.80
2023-05-18T10:34:40.894Z,1.50
2023-05-18T10:37:09.226Z,2.15
2023-05-18T10:39:38.307Z,1.52
2023-05-18T10:42:08.673Z,1.48
2023-05-18T10:44:36.253Z,1.92
2023-05-18T10:47:06.023Z,2.10
2023-05-18T10:49:34.136Z,2.00
2023-05-18T10:52:03.513Z,1.05
2023-05-18T10:54:30.700Z,1.67
2023-05-18T10:56:57.979Z,1.27
2023-05-18T10:59:25.173Z,1.70
2023-05-18T11:01:53.751Z,2.00
2023-05-18T11:04:29.615Z,1.73
2023-05-18T11:07:02.070Z,1.75
2023-05-18T11:09:29.802Z,1.85
2023-05-18T11:11:58.206Z,1.63
2023-05-18T11:14:27.527Z,2.40
2023-05-18T11:17:17.304Z,1.73
2023-05-18T11:20:06.095Z,1.73
2023-05-18T11:23:01.979Z,1.60
2023-05-18T11:25:38.668Z,1.70
2023-05-18T11:28:08.073Z,1.70
2023-05-18T11:30:40.344Z,1.65
2023-05-18T11:33:40.413Z,1.60
2023-05-18T11:36:12.347Z,1.92
2023-05-18T11:38:54.377Z,1.50
2023-05-18T11:41:32.692Z,1.55
2023-05-18T11:44:12.625Z,2.03
2023-05-18T11:46:55.202Z,1.90
2023-05-18T11:49:24.954Z,1.38
2023-05-18T11:52:20.620Z,1.40
2023-05-18T11:54:56.461Z,1.70
2023-05-18T11:57:34.485Z,1.85
2023-05-18T12:00:06.381Z,1.85
2023-05-18T12:02:34.776Z,1.40
2023-05-18T12:05:03.359Z,1.40
2023-05-18T12:07:32.573Z,1.95
2023-05-18T12:10:06.472Z,1.83
2023-05-18T12:12:34.355Z,1.27
2023-05-18T12:15:05.544Z,1.83
2023-05-18T12:17:46.001Z,1.80
2023-05-18T12:20:15.032Z,1.95
2023-05-18T12:22:45.004Z,1.83
2023-05-18T12:25:12.705Z,1.65
2023-05-18T12:27:41.203Z,1.40
2023-05-18T12:30:12.270Z,1.65
2023-05-18T12:32:49.695Z,1.38
2023-05-18T12:35:17.865Z,1.40
2023-05-18T12:37:46.362Z,1.38
2023-05-18T12:40:14.771Z,1.90
2023-05-18T12:42:55.698Z,1.80
2023-05-18T12:45:25.998Z,1.80
2023-05-18T12:47:55.336Z,2.10
2023-05-18T12:50:24.774Z,1.50
2023-05-18T12:52:52.370Z,1.83
2023-05-18T12:55:22.392Z,1.50
2023-05-18T12:58:07.277Z,1.75
2023-05-18T13:00:38.213Z,1.45
2023-05-18T13:03:07.229Z,1.80
2023-05-18T13:05:34.769Z,1.70
2023-05-18T13:08:03.487Z,1.60
2023-05-18T13:10:32.423Z,1.50
2023-05-18T13:13:03.681Z,1.77
2023-05-18T13:15:36.867Z,1.33
2023-05-18T13:18:10.378Z,1.63
2023-05-18T13:20:43.745Z,1.60
2023-05-18T13:23:19.280Z,1.77
2023-05-18T13:25:46.862Z,1.60
2023-05-18T13:28:15.918Z,1.63
2023-05-18T13:30:43.897Z,1.70
2023-05-18T13:33:12.287Z,1.50
2023-05-18T13:35:42.107Z,2.15
2023-05-18T13:38:10.199Z,1.38
2023-05-18T13:40:37.949Z,1.85
2023-05-18T13:43:11.008Z,1.60
2023-05-18T13:48:10.068Z,2.65
2023-05-18T13:50:38.900Z,1.73
2023-05-18T13:53:06.722Z,2.83
2023-05-18T13:55:34.806Z,1.95
2023-05-18T13:58:02.077Z,2.13
2023-05-18T14:00:29.512Z,2.47
2023-05-18T14:02:57.065Z,2.10
2023-05-18T14:05:25.113Z,1.60
2023-05-18T14:07:52.495Z,2.33
2023-05-18T14:10:20.085Z,2.10
2023-05-18T14:12:47.415Z,2.08
2023-05-18T14:15:14.842Z,2.53
2023-05-18T14:17:43.410Z,1.83
2023-05-18T14:20:12.030Z,2.13
2023-05-18T14:22:39.801Z,1.85
2023-05-18T14:25:07.404Z,2.30
2023-05-18T14:27:34.720Z,2.17
2023-05-18T14:30:01.876Z,2.42
2023-05-18T14:32:29.162Z,2.30
2023-05-18T14:34:57.854Z,2.20
2023-05-18T14:37:25.763Z,2.28
2023-05-18T14:39:53.097Z,1.98
2023-05-18T14:42:20.409Z,2.78
2023-05-18T14:44:47.608Z,2.88
2023-05-18T14:47:14.890Z,2.83
2023-05-18T14:49:42.041Z,2.95
2023-05-18T14:52:09.274Z,3.03
2023-05-18T14:54:36.725Z,2.38
2023-05-18T14:57:04.577Z,2.33
2023-05-18T14:59:31.779Z,2.45
2023-05-18T15:01:59.010Z,2.85
2023-05-18T15:04:26.312Z,3.22
2023-05-18T15:06:53.587Z,3.10
2023-05-18T15:09:20.943Z,3.03
2023-05-18T15:11:48.235Z,2.25
2023-05-18T15:14:15.415Z,2.78
2023-05-18T15:16:42.896Z,1.73
2023-05-18T15:19:10.217Z,1.90
2023-05-18T15:21:37.481Z,1.67
2023-05-18T15:24:04.862Z,2.03
2023-05-18T15:26:32.112Z,2.10
2023-05-18T15:28:59.326Z,1.90
2023-05-18T15:31:26.651Z,2.45
2023-05-18T15:33:53.902Z,2.45
2023-05-18T15:36:21.833Z,2.25
2023-05-18T15:38:48.960Z,1.70
2023-05-18T15:41:16.322Z,1.67
2023-05-18T15:43:43.621Z,1.80
2023-05-18T15:46:11.008Z,1.33
2023-05-18T15:48:38.370Z,1.70
2023-05-18T15:51:05.653Z,1.95
2023-05-18T15:53:32.859Z,1.70
2023-05-18T15:56:00.490Z,1.95
2023-05-18T15:58:27.803Z,1.90
2023-05-18T16:00:55.298Z,1.75
2023-05-18T16:03:22.770Z,1.65
2023-05-18T16:05:50.444Z,1.95
2023-05-18T16:12:39.801Z,1.50
2023-05-18T16:15:08.541Z,1.60
2023-05-18T16:17:35.810Z,1.67
2023-05-18T16:20:03.989Z,1.52
2023-05-18T16:22:31.429Z,1.33
2023-05-18T16:24:58.983Z,1.33
2023-05-18T16:27:26.319Z,1.55
2023-05-18T16:29:54.582Z,2.03
2023-05-18T16:32:21.843Z,1.40
2023-05-18T16:34:49.034Z,1.90
2023-05-18T16:37:16.211Z,1.35
2023-05-18T16:39:43.408Z,1.58
2023-05-18T16:42:12.377Z,1.73
2023-05-18T16:44:39.624Z,2.05
2023-05-18T16:47:07.079Z,1.80
2023-05-18T16:49:34.273Z,2.00
2023-05-18T16:52:01.574Z,1.60
2023-05-18T16:54:28.742Z,1.50
2023-05-18T16:56:56.525Z,1.85
2023-05-18T16:59:24.363Z,1.70
2023-05-18T17:01:51.688Z,1.70
2023-05-18T17:04:18.961Z,2.25
2023-05-18T17:06:46.426Z,2.17
2023-05-18T17:09:13.708Z,1.55
2023-05-18T17:11:41.913Z,1.30
2023-05-18T17:14:09.082Z,1.20
2023-05-18T17:16:40.227Z,1.30
2023-05-18T17:19:23.018Z,1.77
2023-05-18T17:21:50.544Z,1.58
2023-05-18T17:24:17.954Z,1.60
2023-05-18T17:26:45.169Z,1.33
2023-05-18T17:29:14.990Z,1.65
2023-05-18T17:32:35.718Z,1.50
2023-05-18T18:12:28.725Z,1.65
2023-05-18T18:14:56.049Z,2.25
2023-05-18T18:17:24.342Z,1.85
2023-05-18T18:19:51.863Z,2.22
2023-05-18T18:22:19.199Z,1.70
2023-05-18T18:24:46.396Z,1.70
2023-05-18T18:27:13.604Z,1.70
2023-05-18T18:29:40.863Z,1.88
2023-05-18T18:32:08.774Z,2.05
2023-05-18T18:34:35.932Z,1.77
2023-05-18T18:37:03.990Z,2.05
2023-05-18T18:39:31.269Z,1.85
2023-05-18T18:41:58.457Z,2.35
2023-05-18T18:44:25.806Z,2.30
2023-05-18T18:47:18.750Z,2.67
2023-05-18T18:49:45.952Z,2.50
2023-05-18T18:52:14.070Z,2.50
2023-05-18T18:54:41.537Z,2.40
2023-05-18T18:57:10.378Z,2.85
2023-05-18T18:59:38.132Z,2.55
2023-05-18T19:02:05.520Z,2.35
2023-05-18T19:04:32.850Z,2.40
2023-05-18T19:13:49.217Z,2.47
2023-05-18T19:16:17.628Z,2.90
2023-05-18T19:18:45.418Z,2.42
2023-05-18T19:21:12.758Z,2.65
2023-05-18T19:28:04.980Z,2.25
2023-05-18T19:30:32.270Z,2.40
2023-05-18T19:32:59.480Z,2.40
2023-05-18T19:35:26.788Z,2.50
2023-05-18T19:37:54.036Z,2.15
2023-05-18T19:40:22.598Z,2.53
2023-05-18T19:42:50.246Z,3.00
2023-05-18T19:45:17.532Z,3.38
2023-05-18T19:47:44.793Z,2.83
2023-05-18T19:50:12.336Z,3.13
2023-05-18T19:52:39.485Z,2.95
2023-05-18T19:55:07.207Z,3.42
2023-05-18T19:57:34.369Z,3.92
2023-05-18T20:00:02.287Z,4.22
2023-05-18T20:02:29.492Z,4.90
2023-05-18T20:04:56.726Z,4.57
2023-05-18T20:07:24.118Z,4.25
2023-05-18T20:09:53.019Z,3.40
2023-05-18T20:12:20.348Z,3.58
2023-05-18T20:14:48.399Z,4.18
2023-05-18T20:17:16.829Z,3.13
2023-05-18T20:19:53.388Z,3.05
2023-05-18T20:22:21.012Z,2.97
2023-05-18T20:24:48.890Z,2.70
2023-05-18T20:27:16.580Z,3.05
2023-05-18T20:29:43.756Z,2.55
2023-05-18T20:32:11.132Z,2.92
2023-05-18T20:34:38.407Z,3.70
2023-05-18T20:37:08.516Z,3.08
2023-05-18T20:39:39.771Z,2.25
2023-05-18T20:42:07.499Z,3.08
2023-05-18T20:44:35.043Z,3.08
2023-05-18T20:47:02.594Z,2.75
2023-05-18T20:49:29.881Z,3.60
2023-05-18T20:51:57.084Z,2.10
2023-05-18T20:54:24.382Z,2.97
2023-05-18T20:56:51.832Z,2.35
2023-05-18T20:59:19.222Z,2.78
2023-05-18T21:01:46.499Z,2.40
2023-05-18T21:04:14.893Z,2.70
2023-05-18T21:06:44.017Z,3.08
2023-05-18T21:09:11.919Z,3.05
2023-05-18T21:11:39.687Z,2.55
2023-05-18T21:14:06.919Z,2.42
2023-05-18T21:16:34.285Z,2.28
2023-05-18T21:19:01.555Z,2.25
2023-05-18T21:21:29.018Z,3.03
2023-05-18T21:23:56.304Z,2.90
2023-05-18T21:26:23.536Z,2.50
2023-05-18T21:28:50.766Z,2.15
2023-05-18T21:31:18.014Z,3.15
2023-05-18T21:33:48.157Z,2.70
2023-05-18T21:36:15.822Z,2.10
2023-05-18T21:38:43.106Z,2.83
2023-05-18T21:41:10.311Z,3.38
2023-05-18T21:43:37.668Z,2.25
2023-05-18T21:46:06.446Z,2.20
2023-05-18T21:48:35.106Z,2.72
2023-05-18T21:51:04.127Z,2.63
2023-05-18T21:53:31.357Z,2.95
2023-05-18T21:55:58.554Z,2.70
2023-05-18T21:58:25.803Z,2.20
2023-05-18T22:00:53.007Z,2.17
2023-05-18T22:03:21.741Z,2.72
2023-05-18T22:05:49.666Z,2.40
2023-05-18T22:08:17.008Z,2.78
2023-05-18T22:10:44.310Z,2.45
2023-05-18T22:13:11.525Z,2.78
2023-05-18T22:15:40.268Z,3.00
2023-05-18T22:18:07.633Z,3.17
2023-05-18T22:24:54.109Z,2.13
2023-05-18T22:27:21.371Z,2.75
2023-05-18T22:29:48.595Z,2.00
2023-05-18T22:32:17.860Z,2.08
2023-05-18T22:34:45.034Z,2.30
2023-05-18T22:37:12.320Z,2.55
2023-05-18T22:39:39.560Z,2.28
2023-05-18T22:42:06.986Z,2.72
2023-05-18T22:44:34.161Z,2.10
2023-05-18T22:47:01.400Z,2.15
2023-05-18T22:49:28.658Z,2.13
2023-05-18T22:51:55.889Z,2.53
2023-05-18T22:54:23.222Z,2.45
2023-05-18T22:56:50.452Z,2.33
2023-05-18T22:59:17.951Z,2.65
2023-05-18T23:01:45.360Z,2.60
2023-05-18T23:04:13.160Z,2.55
2023-05-18T23:06:41.215Z,2.80
2023-05-18T23:09:08.385Z,2.50
2023-05-18T23:11:35.568Z,2.92
2023-05-18T23:14:03.106Z,3.22
2023-05-18T23:16:30.359Z,2.10
2023-05-18T23:19:04.014Z,2.65
2023-05-18T23:21:31.404Z,2.33
2023-05-18T23:23:59.697Z,2.13
2023-05-18T23:26:27.096Z,2.42
2023-05-18T23:28:54.327Z,2.67
2023-05-18T23:31:21.996Z,2.30
2023-05-18T23:33:49.410Z,2.80
2023-05-18T23:36:19.687Z,2.10
2023-05-18T23:38:48.503Z,2.30
2023-05-18T23:41:15.804Z,3.00
2023-05-18T23:43:43.245Z,2.28
2023-05-18T23:46:10.864Z,2.42
2023-05-18T23:48:38.385Z,2.42
2023-05-18T23:51:07.082Z,2.35
2023-05-18T23:53:34.904Z,2.20
2023-05-18T23:56:02.547Z,2.33
2023-05-18T23:58:31.737Z,2.35
